createdAt,value
2017-12-06T00:01:06.746Z,76.29
2017-12-06T00:03:33.898Z,76.17
2017-12-06T00:06:00.332Z,76.26
2017-12-06T00:08:26.774Z,76.25
2017-12-06T00:10:53.158Z,75.93
2017-12-06T00:13:19.535Z,75.70
2017-12-06T00:15:45.969Z,75.88
2017-12-06T00:18:12.403Z,75.91
2017-12-06T00:20:39.674Z,76.08
2017-12-06T00:23:06.091Z,75.89
2017-12-06T00:25:32.463Z,75.82
2017-12-06T00:27:58.794Z,75.60
2017-12-06T00:30:25.174Z,75.65
2017-12-06T00:32:51.527Z,75.52
2017-12-06T00:35:17.957Z,75.37
2017-12-06T00:37:45.005Z,75.34
2017-12-06T00:40:11.440Z,75.37
2017-12-06T00:42:37.875Z,75.57
2017-12-06T00:45:04.250Z,75.56
2017-12-06T00:47:30.641Z,75.67
2017-12-06T00:49:57.178Z,75.59
2017-12-06T00:52:23.715Z,75.56
2017-12-06T00:54:50.662Z,75.42
2017-12-06T00:57:17.179Z,75.37
2017-12-06T00:59:43.633Z,75.29
2017-12-06T01:02:09.968Z,75.42
2017-12-06T01:04:36.443Z,75.49
2017-12-06T01:07:02.834Z,75.61
2017-12-06T01:09:29.315Z,75.56
2017-12-06T01:11:56.441Z,75.47
2017-12-06T01:14:22.855Z,75.47
2017-12-06T01:16:49.290Z,75.28
2017-12-06T01:19:15.724Z,75.27
2017-12-06T01:21:42.159Z,75.13
2017-12-06T01:24:08.593Z,75.01
2017-12-06T01:26:35.029Z,75.02
2017-12-06T01:29:02.078Z,75.05
2017-12-06T01:31:28.511Z,74.97
2017-12-06T01:33:54.842Z,74.84
2017-12-06T01:36:21.279Z,74.78
2017-12-06T01:38:47.712Z,74.91
2017-12-06T01:41:14.186Z,74.85
2017-12-06T01:43:40.582Z,74.85
2017-12-06T01:46:07.834Z,74.68
2017-12-06T01:48:34.269Z,74.53
2017-12-06T01:51:00.638Z,74.65
2017-12-06T01:53:27.140Z,74.59
2017-12-06T01:55:53.575Z,74.87
2017-12-06T01:58:20.008Z,74.99
2017-12-06T02:00:46.462Z,75.02
2017-12-06T02:03:13.696Z,74.94
2017-12-06T02:05:40.130Z,74.98
2017-12-06T02:08:06.565Z,75.01
2017-12-06T02:10:33.000Z,75.26
2017-12-06T02:12:59.439Z,75.28
2017-12-06T02:15:25.801Z,74.96
2017-12-06T02:17:52.201Z,74.87
2017-12-06T02:20:19.310Z,75.17
2017-12-06T02:22:45.775Z,75.40
2017-12-06T02:25:12.188Z,75.53
2017-12-06T02:27:38.554Z,75.62
2017-12-06T02:30:04.988Z,75.58
2017-12-06T02:32:31.443Z,75.20
2017-12-06T02:34:57.857Z,74.87
2017-12-06T02:37:25.111Z,74.61
2017-12-06T02:39:51.546Z,74.71
2017-12-06T02:42:17.954Z,74.54
2017-12-06T02:44:44.395Z,74.69
2017-12-06T02:47:10.838Z,74.76
2017-12-06T02:49:37.284Z,74.95
2017-12-06T02:52:03.718Z,74.95
2017-12-06T02:54:30.880Z,75.16
2017-12-06T02:56:57.284Z,75.26
2017-12-06T02:59:23.722Z,75.29
2017-12-06T03:04:21.335Z,75.11
2017-12-06T03:06:47.756Z,74.82
2017-12-06T03:09:14.189Z,74.31
2017-12-06T03:11:40.621Z,73.78
2017-12-06T03:14:06.954Z,73.64
2017-12-06T03:16:33.321Z,73.63
2017-12-06T03:18:59.720Z,73.55
2017-12-06T03:21:26.979Z,73.45
2017-12-06T03:23:53.342Z,73.33
2017-12-06T03:26:19.763Z,73.15
2017-12-06T03:28:46.150Z,73.16
2017-12-06T03:31:12.593Z,73.31
2017-12-06T03:33:39.046Z,73.63
2017-12-06T03:36:05.479Z,73.33
2017-12-06T03:38:32.720Z,73.08
2017-12-06T03:40:59.168Z,72.93
2017-12-06T03:43:25.601Z,72.63
2017-12-06T03:45:52.018Z,72.36
2017-12-06T03:48:18.575Z,72.38
2017-12-06T03:50:45.030Z,71.97
2017-12-06T03:53:11.420Z,72.46
2017-12-06T03:55:38.696Z,72.61
2017-12-06T03:58:05.151Z,72.63
2017-12-06T04:00:31.567Z,72.63
2017-12-06T04:02:58.002Z,72.64
2017-12-06T04:05:24.464Z,72.71
2017-12-06T04:07:50.871Z,72.70
2017-12-06T04:10:17.296Z,72.47
2017-12-06T04:12:44.430Z,72.70
2017-12-06T04:15:10.889Z,72.98
2017-12-06T04:17:37.262Z,72.69
2017-12-06T04:20:03.759Z,72.59
2017-12-06T04:22:30.213Z,72.63
2017-12-06T04:24:56.628Z,72.51
2017-12-06T04:27:23.062Z,72.31
2017-12-06T04:29:50.214Z,72.46
2017-12-06T04:32:16.750Z,72.56
2017-12-06T04:34:43.186Z,72.81
2017-12-06T04:37:09.517Z,72.79
2017-12-06T04:39:35.892Z,72.75
2017-12-06T04:42:02.284Z,72.75
2017-12-06T04:44:28.700Z,72.71
2017-12-06T04:46:55.842Z,72.75
2017-12-06T04:49:22.311Z,72.94
2017-12-06T04:51:48.674Z,73.01
2017-12-06T04:54:15.043Z,73.20
2017-12-06T04:56:41.506Z,73.20
2017-12-06T04:59:07.940Z,73.07
2017-12-06T05:01:34.374Z,73.04
2017-12-06T05:04:01.526Z,73.09
2017-12-06T05:06:27.858Z,73.09
2017-12-06T05:08:54.230Z,73.06
2017-12-06T05:11:20.625Z,73.10
2017-12-06T05:13:47.059Z,73.08
2017-12-06T05:16:13.493Z,73.13
2017-12-06T05:18:39.940Z,72.92
2017-12-06T05:21:07.196Z,72.82
2017-12-06T05:23:33.617Z,72.82
2017-12-06T05:25:59.939Z,72.84
2017-12-06T05:28:26.387Z,72.66
2017-12-06T05:30:52.818Z,72.41
2017-12-06T05:33:19.253Z,72.74
2017-12-06T05:35:45.722Z,72.70
2017-12-06T05:38:12.837Z,72.74
2017-12-06T05:40:39.276Z,72.48
2017-12-06T05:43:05.707Z,72.47
2017-12-06T05:45:32.101Z,72.63
2017-12-06T05:47:58.595Z,72.84
2017-12-06T05:50:24.965Z,72.99
2017-12-06T05:52:51.278Z,72.85
2017-12-06T05:55:18.467Z,72.93
2017-12-06T05:57:44.931Z,72.62
2017-12-06T06:00:11.298Z,72.56
2017-12-06T06:02:37.696Z,72.24
2017-12-06T06:05:04.133Z,72.21
2017-12-06T06:07:30.501Z,71.97
2017-12-06T06:09:56.897Z,71.14
2017-12-06T06:12:24.151Z,70.97
2017-12-06T06:14:50.504Z,71.10
2017-12-06T06:17:16.929Z,70.63
2017-12-06T06:19:43.967Z,71.07
2017-12-06T06:22:10.401Z,71.06
2017-12-06T06:24:37.249Z,71.25
2017-12-06T06:27:04.192Z,71.30
2017-12-06T06:29:30.625Z,71.27
2017-12-06T06:31:57.061Z,71.20
2017-12-06T06:34:23.597Z,71.51
2017-12-06T06:36:50.441Z,71.33
2017-12-06T06:39:16.774Z,71.26
2017-12-06T06:41:43.236Z,71.23
2017-12-06T06:44:09.643Z,71.15
2017-12-06T06:46:35.975Z,71.28
2017-12-06T06:49:02.418Z,71.03
2017-12-06T06:51:28.787Z,71.01
2017-12-06T06:53:55.175Z,70.94
2017-12-06T06:56:21.716Z,70.92
2017-12-06T06:58:48.037Z,70.86
2017-12-06T07:01:14.389Z,70.68
2017-12-06T07:03:40.767Z,70.63
2017-12-06T07:06:07.218Z,70.77
2017-12-06T07:08:33.681Z,70.74
2017-12-06T07:11:00.119Z,70.71
2017-12-06T07:13:26.548Z,70.67
2017-12-06T07:15:52.986Z,70.75
2017-12-06T07:18:19.382Z,71.16
2017-12-06T07:20:45.751Z,71.15
2017-12-06T07:23:12.596Z,71.16
2017-12-06T07:25:38.927Z,71.42
2017-12-06T07:28:05.314Z,70.71
2017-12-06T07:30:31.797Z,70.71
2017-12-06T07:32:58.232Z,70.62
2017-12-06T07:35:24.768Z,70.83
2017-12-06T07:37:51.221Z,70.21
2017-12-06T07:40:17.637Z,70.57
2017-12-06T07:42:43.974Z,70.41
2017-12-06T07:45:10.382Z,70.56
2017-12-06T07:47:36.839Z,70.05
2017-12-06T07:50:03.273Z,70.38
2017-12-06T07:52:29.606Z,70.47
2017-12-06T07:54:55.941Z,70.36
2017-12-06T07:57:22.269Z,69.91
2017-12-06T07:59:48.687Z,69.74
2017-12-06T08:02:15.140Z,69.90
2017-12-06T08:04:41.880Z,69.74
2017-12-06T08:07:08.213Z,69.64
2017-12-06T08:09:34.646Z,69.13
2017-12-06T08:12:01.116Z,69.39
2017-12-06T08:14:27.487Z,69.78
2017-12-06T08:16:54.365Z,69.52
2017-12-06T08:19:20.698Z,69.55
2017-12-06T08:21:47.127Z,68.87
2017-12-06T08:24:13.499Z,69.16
2017-12-06T08:26:39.973Z,69.26
2017-12-06T08:29:06.415Z,68.75
2017-12-06T08:31:32.865Z,69.13
2017-12-06T08:33:59.235Z,68.83
2017-12-06T08:36:26.047Z,68.65
2017-12-06T08:38:52.393Z,68.43
2017-12-06T08:41:18.913Z,68.35
2017-12-06T08:43:45.278Z,68.25
2017-12-06T08:46:11.678Z,68.34
2017-12-06T08:48:38.017Z,68.09
2017-12-06T08:51:04.444Z,67.74
2017-12-06T08:53:30.879Z,67.55
2017-12-06T08:55:57.521Z,67.48
2017-12-06T08:58:23.891Z,67.24
2017-12-06T09:00:50.286Z,66.78
2017-12-06T09:03:17.027Z,66.83
2017-12-06T09:05:43.568Z,66.34
2017-12-06T09:08:09.999Z,66.34
2017-12-06T09:10:36.639Z,65.71
2017-12-06T09:13:03.070Z,65.71
2017-12-06T09:15:29.545Z,65.12
2017-12-06T09:17:56.042Z,64.97
2017-12-06T09:20:22.414Z,64.14
2017-12-06T09:22:48.740Z,64.48
2017-12-06T09:25:15.244Z,63.65
2017-12-06T09:27:41.679Z,64.12
2017-12-06T09:30:08.115Z,63.84
2017-12-06T09:32:34.854Z,64.05
2017-12-06T09:35:01.327Z,64.43
2017-12-06T09:37:27.793Z,64.56
2017-12-06T09:39:54.235Z,63.59
2017-12-06T09:42:20.632Z,62.92
2017-12-06T09:44:47.518Z,62.56
2017-12-06T09:47:13.962Z,62.71
2017-12-06T09:49:40.408Z,62.88
2017-12-06T09:52:06.843Z,63.54
2017-12-06T09:54:33.278Z,62.62
2017-12-06T09:56:59.815Z,62.59
2017-12-06T09:59:26.659Z,62.85
2017-12-06T10:01:53.165Z,62.93
2017-12-06T10:04:19.606Z,62.23
2017-12-06T10:06:46.210Z,62.23
2017-12-06T10:09:12.542Z,62.73
2017-12-06T10:11:38.964Z,61.36
2017-12-06T10:14:05.286Z,61.54
2017-12-06T10:16:31.804Z,60.84
2017-12-06T10:18:58.442Z,60.78
2017-12-06T10:21:24.876Z,60.74
2017-12-06T10:23:51.346Z,60.92
2017-12-06T10:26:17.848Z,60.45
2017-12-06T10:28:44.285Z,61.13
2017-12-06T10:31:10.928Z,61.35
2017-12-06T10:33:37.277Z,61.25
2017-12-06T10:36:03.690Z,61.87
2017-12-06T10:38:30.534Z,61.95
2017-12-06T10:40:56.911Z,62.44
2017-12-06T10:43:23.338Z,61.44
2017-12-06T10:45:50.144Z,61.96
2017-12-06T10:48:16.681Z,61.63
2017-12-06T10:50:43.116Z,61.69
2017-12-06T10:53:09.960Z,61.45
2017-12-06T10:55:36.759Z,61.68
2017-12-06T10:58:03.990Z,61.68
2017-12-06T11:00:30.514Z,62.09
2017-12-06T11:02:57.015Z,61.11
2017-12-06T11:05:23.462Z,61.29
2017-12-06T11:07:49.897Z,61.42
2017-12-06T11:10:16.742Z,61.94
2017-12-06T11:12:43.176Z,62.09
2017-12-06T11:15:09.652Z,62.27
2017-12-06T11:17:36.046Z,61.88
2017-12-06T11:20:02.685Z,61.47
2017-12-06T11:22:29.123Z,61.24
2017-12-06T11:24:55.486Z,60.80
2017-12-06T11:27:21.989Z,60.65
2017-12-06T11:29:48.429Z,61.52
2017-12-06T11:32:15.167Z,61.55
2017-12-06T11:34:41.837Z,60.64
2017-12-06T11:37:08.329Z,61.12
2017-12-06T11:39:34.776Z,60.50
2017-12-06T11:42:01.518Z,59.78
2017-12-06T11:44:27.951Z,60.54
2017-12-06T11:46:54.489Z,61.03
2017-12-06T11:56:55.319Z,61.93
2017-12-06T11:59:21.817Z,62.09
2017-12-06T12:01:48.354Z,61.99
2017-12-06T12:04:14.892Z,62.33
2017-12-06T12:06:41.362Z,62.31
2017-12-06T12:09:07.725Z,62.28
2017-12-06T12:11:34.934Z,62.72
2017-12-06T12:14:01.346Z,63.72
2017-12-06T12:16:27.888Z,64.22
2017-12-06T12:18:54.624Z,64.36
2017-12-06T12:21:20.999Z,64.22
2017-12-06T12:23:47.493Z,63.70
2017-12-06T12:26:14.440Z,63.66
2017-12-06T12:28:40.874Z,64.26
2017-12-06T12:31:07.309Z,64.59
2017-12-06T12:33:34.154Z,65.35
2017-12-06T12:36:00.589Z,64.18
2017-12-06T12:38:27.024Z,63.47
2017-12-06T12:40:53.457Z,63.59
2017-12-06T12:43:20.301Z,63.64
2017-12-06T12:45:46.883Z,62.73
2017-12-06T12:48:13.273Z,63.16
2017-12-06T12:50:39.809Z,63.26
2017-12-06T12:53:06.179Z,63.82
2017-12-06T12:55:32.650Z,63.71
2017-12-06T12:57:59.169Z,63.59
2017-12-06T13:00:25.634Z,63.42
2017-12-06T13:02:51.982Z,63.21
2017-12-06T13:05:18.626Z,63.70
2017-12-06T13:07:45.559Z,64.02
2017-12-06T13:10:12.002Z,63.95
2017-12-06T13:12:38.437Z,64.06
2017-12-06T13:15:04.871Z,63.89
2017-12-06T13:17:31.307Z,63.84
2017-12-06T13:19:58.150Z,64.34
2017-12-06T13:22:24.585Z,64.74
2017-12-06T13:24:51.019Z,64.63
2017-12-06T13:27:17.405Z,64.33
2017-12-06T13:29:43.888Z,64.88
2017-12-06T13:32:10.281Z,64.99
2017-12-06T13:34:36.655Z,65.38
2017-12-06T13:37:03.203Z,65.00
2017-12-06T13:39:29.627Z,64.62
2017-12-06T13:41:56.062Z,64.84
2017-12-06T13:44:22.497Z,65.29
2017-12-06T13:46:49.032Z,65.06
2017-12-06T13:49:15.466Z,65.05
2017-12-06T13:51:41.901Z,65.13
2017-12-06T13:54:08.336Z,65.30
2017-12-06T13:56:34.820Z,65.13
2017-12-06T13:59:01.718Z,64.58
2017-12-06T14:01:28.048Z,64.65
2017-12-06T14:03:54.486Z,65.39
2017-12-06T14:06:21.125Z,65.24
2017-12-06T14:08:47.558Z,65.37
2017-12-06T14:11:13.930Z,65.74
2017-12-06T14:13:40.324Z,65.68
2017-12-06T14:16:07.164Z,65.02
2017-12-06T14:18:33.603Z,65.21
2017-12-06T14:21:00.043Z,65.30
2017-12-06T14:23:26.474Z,65.42
2017-12-06T14:25:53.215Z,65.41
2017-12-06T14:28:19.625Z,65.30
2017-12-06T14:30:45.983Z,65.74
2017-12-06T14:33:12.662Z,66.01
2017-12-06T14:35:39.157Z,65.97
2017-12-06T14:38:05.529Z,65.64
2017-12-06T14:40:32.598Z,65.99
2017-12-06T14:42:59.033Z,65.19
2017-12-06T14:45:25.468Z,65.23
2017-12-06T14:47:51.903Z,65.16
2017-12-06T14:50:18.336Z,65.09
2017-12-06T14:52:44.805Z,64.85
2017-12-06T14:55:11.359Z,64.79
2017-12-06T14:57:37.668Z,64.41
2017-12-06T15:00:04.109Z,64.63
2017-12-06T15:02:30.591Z,64.39
2017-12-06T15:04:58.070Z,64.40
2017-12-06T15:07:24.506Z,64.76
2017-12-06T15:09:51.257Z,64.98
2017-12-06T15:12:17.680Z,64.70
2017-12-06T15:14:44.074Z,64.37
2017-12-06T15:17:10.447Z,64.28
2017-12-06T15:19:36.816Z,64.89
2017-12-06T15:22:03.317Z,65.05
2017-12-06T15:24:29.751Z,64.36
2017-12-06T15:26:56.187Z,64.46
2017-12-06T15:29:22.518Z,64.54
2017-12-06T15:31:49.055Z,64.56
2017-12-06T15:34:15.490Z,64.43
2017-12-06T15:36:41.925Z,64.42
2017-12-06T15:39:08.246Z,64.26
2017-12-06T15:41:34.616Z,63.63
2017-12-06T15:44:00.980Z,63.68
2017-12-06T15:46:27.289Z,63.29
2017-12-06T15:48:53.733Z,63.38
2017-12-06T15:51:20.056Z,63.50
2017-12-06T15:53:46.484Z,63.66
2017-12-06T15:56:13.400Z,63.52
2017-12-06T15:58:40.349Z,63.36
2017-12-06T16:01:06.828Z,63.36
2017-12-06T16:03:33.215Z,63.25
2017-12-06T16:05:59.652Z,63.00
2017-12-06T16:08:26.085Z,63.17
2017-12-06T16:10:52.564Z,63.24
2017-12-06T16:13:18.936Z,63.35
2017-12-06T16:15:45.392Z,63.23
2017-12-06T16:18:12.031Z,63.09
2017-12-06T16:20:38.388Z,63.40
2017-12-06T16:23:04.729Z,63.79
2017-12-06T16:25:31.095Z,64.08
2017-12-06T16:27:57.487Z,64.04
2017-12-06T16:30:23.826Z,64.06
2017-12-06T16:32:50.231Z,63.91
2017-12-06T16:35:16.560Z,64.13
2017-12-06T16:37:42.995Z,64.08
2017-12-06T16:40:09.362Z,64.41
2017-12-06T16:42:35.862Z,64.56
2017-12-06T16:45:02.297Z,64.38
2017-12-06T16:47:28.747Z,64.70
2017-12-06T16:49:55.168Z,64.66
2017-12-06T16:52:21.601Z,64.62
2017-12-06T16:54:47.932Z,64.73
2017-12-06T16:57:14.368Z,64.83
2017-12-06T16:59:40.784Z,64.91
2017-12-06T17:02:07.261Z,64.89
2017-12-06T17:04:34.490Z,65.14
2017-12-06T17:07:00.929Z,65.09
2017-12-06T17:09:27.288Z,64.81
2017-12-06T17:11:53.692Z,65.06
2017-12-06T17:14:20.126Z,65.34
2017-12-06T17:16:46.565Z,64.96
2017-12-06T17:19:12.995Z,64.29
2017-12-06T17:21:40.269Z,64.00
2017-12-06T17:24:06.683Z,63.97
2017-12-06T17:26:33.362Z,64.20
2017-12-06T17:29:00.065Z,64.01
2017-12-06T17:31:26.703Z,62.98
2017-12-06T17:33:53.245Z,62.92
2017-12-06T17:36:19.765Z,62.58
2017-12-06T17:38:46.948Z,63.07
2017-12-06T17:41:13.292Z,62.80
2017-12-06T17:43:39.638Z,63.20
2017-12-06T17:46:05.983Z,63.12
2017-12-06T17:48:32.359Z,63.60
2017-12-06T17:50:58.721Z,63.15
2017-12-06T17:53:25.127Z,63.15
2017-12-06T17:55:52.278Z,62.38
2017-12-06T17:58:18.714Z,62.45
2017-12-06T18:00:45.146Z,62.15
2017-12-06T18:03:11.582Z,62.12
2017-12-06T18:05:38.016Z,62.32
2017-12-06T18:08:04.472Z,62.57
2017-12-06T18:10:30.887Z,61.76
2017-12-06T18:12:58.140Z,61.70
2017-12-06T18:15:24.573Z,61.19
2017-12-06T18:17:51.008Z,61.31
2017-12-06T18:20:17.544Z,61.26
2017-12-06T18:22:43.998Z,61.41
2017-12-06T18:25:10.517Z,61.69
2017-12-06T18:27:36.951Z,61.82
2017-12-06T18:30:03.999Z,61.87
2017-12-06T18:32:30.332Z,61.65
2017-12-06T18:34:56.788Z,61.78
2017-12-06T18:37:23.222Z,62.20
2017-12-06T18:39:49.636Z,62.45
2017-12-06T18:42:15.968Z,62.60
2017-12-06T18:44:42.408Z,62.85
2017-12-06T18:47:09.656Z,62.85
2017-12-06T18:49:35.993Z,63.26
2017-12-06T18:52:02.423Z,63.65
2017-12-06T18:54:28.857Z,63.61
2017-12-06T18:56:55.294Z,63.73
2017-12-06T18:59:21.673Z,63.80
2017-12-06T19:01:48.058Z,63.47
2017-12-06T19:04:15.313Z,63.20
2017-12-06T19:06:41.746Z,63.14
2017-12-06T19:09:08.182Z,63.39
2017-12-06T19:11:34.681Z,63.23
2017-12-06T19:14:01.173Z,63.17
2017-12-06T19:16:27.489Z,63.52
2017-12-06T19:18:53.925Z,63.23
2017-12-06T19:21:21.074Z,63.40
2017-12-06T19:23:47.506Z,63.40
2017-12-06T19:26:13.942Z,63.13
2017-12-06T19:28:40.375Z,63.39
2017-12-06T19:31:06.766Z,63.68
2017-12-06T19:33:33.069Z,63.41
2017-12-06T19:35:59.473Z,63.02
2017-12-06T19:38:26.730Z,62.97
2017-12-06T19:40:53.162Z,63.06
2017-12-06T19:43:19.596Z,63.11
2017-12-06T19:45:46.032Z,63.22
2017-12-06T19:48:12.467Z,63.23
2017-12-06T19:50:38.943Z,63.24
2017-12-06T19:53:05.266Z,63.41
2017-12-06T19:55:32.487Z,63.41
2017-12-06T19:57:58.921Z,63.64
2017-12-06T20:00:25.642Z,63.93
2017-12-06T20:02:52.199Z,63.90
2017-12-06T20:05:18.634Z,63.62
2017-12-06T20:07:45.070Z,63.47
2017-12-06T20:10:11.604Z,63.50
2017-12-06T20:12:38.760Z,63.91
2017-12-06T20:15:05.125Z,63.73
2017-12-06T20:17:31.523Z,63.64
2017-12-06T20:19:57.957Z,63.72
2017-12-06T20:22:24.393Z,63.46
2017-12-06T20:24:50.826Z,63.58
2017-12-06T20:27:17.262Z,63.92
2017-12-06T20:29:44.519Z,64.04
2017-12-06T20:32:10.952Z,63.86
2017-12-06T20:34:37.485Z,64.01
2017-12-06T20:37:03.921Z,64.26
2017-12-06T20:39:30.458Z,64.10
2017-12-06T20:41:56.900Z,64.07
2017-12-06T20:44:23.258Z,63.83
2017-12-06T20:46:50.478Z,63.94
2017-12-06T20:49:16.848Z,63.98
2017-12-06T20:51:43.275Z,63.91
2017-12-06T20:54:09.680Z,64.13
2017-12-06T20:56:36.114Z,63.71
2017-12-06T20:59:02.549Z,63.77
2017-12-06T21:01:28.984Z,63.41
2017-12-06T21:03:56.115Z,63.65
2017-12-06T21:06:22.569Z,63.89
2017-12-06T21:08:49.004Z,63.87
2017-12-06T21:11:15.438Z,64.35
2017-12-06T21:13:41.872Z,64.66
2017-12-06T21:16:08.308Z,64.99
2017-12-06T21:18:34.744Z,65.49
2017-12-06T21:21:01.893Z,65.57
2017-12-06T21:23:28.330Z,65.87
2017-12-06T21:25:54.665Z,66.08
2017-12-06T21:28:21.097Z,66.33
2017-12-06T21:30:47.465Z,66.42
2017-12-06T21:33:13.820Z,66.52
2017-12-06T21:35:40.287Z,66.78
2017-12-06T21:38:07.450Z,66.86
2017-12-06T21:40:33.818Z,66.95
2017-12-06T21:43:00.138Z,67.21
2017-12-06T21:45:26.548Z,67.41
2017-12-06T21:47:53.104Z,67.66
2017-12-06T21:50:19.519Z,67.98
2017-12-06T21:52:45.954Z,68.07
2017-12-06T21:55:13.103Z,67.95
2017-12-06T21:57:39.536Z,68.15
2017-12-06T22:00:06.003Z,68.04
2017-12-06T22:02:32.406Z,68.22
2017-12-06T22:04:58.850Z,68.20
2017-12-06T22:07:25.276Z,68.57
2017-12-06T22:09:51.642Z,68.82
2017-12-06T22:12:18.833Z,68.96
2017-12-06T22:14:45.296Z,68.84
2017-12-06T22:17:11.731Z,68.79
2017-12-06T22:19:38.165Z,68.84
2017-12-06T22:22:04.599Z,68.97
2017-12-06T22:24:31.029Z,68.84
2017-12-06T22:26:57.474Z,69.14
2017-12-06T22:29:24.518Z,69.41
2017-12-06T22:31:50.956Z,69.52
2017-12-06T22:34:17.321Z,69.65
2017-12-06T22:36:43.654Z,69.71
2017-12-06T22:39:10.051Z,69.68
2017-12-06T22:41:36.433Z,69.76
2017-12-06T22:44:02.818Z,69.81
2017-12-06T22:46:29.969Z,70.03
2017-12-06T22:48:56.425Z,70.07
2017-12-06T22:51:22.838Z,70.09
2017-12-06T22:53:49.274Z,70.17
2017-12-06T22:56:15.707Z,70.11
2017-12-06T22:58:42.143Z,70.30
2017-12-06T23:01:08.577Z,70.32
2017-12-06T23:03:35.725Z,70.20
2017-12-06T23:06:02.165Z,70.18
2017-12-06T23:08:28.598Z,70.19
2017-12-06T23:10:55.058Z,70.23
2017-12-06T23:13:21.443Z,70.41
2017-12-06T23:15:47.885Z,70.15
2017-12-06T23:18:14.335Z,70.24
2017-12-06T23:20:41.589Z,70.48
2017-12-06T23:23:08.024Z,70.54
2017-12-06T23:25:34.428Z,70.68
2017-12-06T23:28:00.895Z,70.78
2017-12-06T23:30:27.328Z,71.00
2017-12-06T23:32:53.773Z,71.14
2017-12-06T23:35:20.197Z,71.22
2017-12-06T23:37:47.281Z,71.31
2017-12-06T23:40:13.654Z,71.38
2017-12-06T23:42:40.012Z,71.58
2017-12-06T23:45:06.447Z,71.89
2017-12-06T23:47:32.881Z,72.01
2017-12-06T23:49:59.296Z,72.25
2017-12-06T23:52:25.648Z,72.59
2017-12-06T23:54:53.106Z,72.71
2017-12-06T23:57:19.542Z,72.96
2017-12-06T23:59:45.977Z,73.08
